Portada
METAR-TAF:

METAR-TAF

Aeropuertos :

Portage Glacier, Alaska, Estados Unidos

latitud: 60-47N, longitud: 148-50W, altitud: 29 m

Observación

El informe se hizo hace 1 hora y 3 minutos, a las 03:53 UTC
Viento 9 kt del este-sureste con ráfagas de 22 kt, variando entre este-noreste y sureste
Temperatura 14°C
Humedad 72%
Presión 1027 hPa
Visibilidad: 16.1 km
Nubes dispersas a una altura de 10000 ft

METAR: PATO 250353Z AUTO 11009G22KT 070V140 10SM SCT100 14/09 A3034 RMK AO2 PK WND 13026/0304 SLP273 T01390094 TSNO

Hora: 20:56 (04:56 UTC)


TAF: falta

Observaciones y pronósticos meteorológicos de más de 4000 aeropuertos (mensajes METAR y TAF).

Los puntos amarillos y rojos representan las estaciones disponibles.

Ponga el ratón en el punto deseado para ver el nombre de la estación.

Haga clic para ver las observaciones y los pronósticos meteorológicos.

Para cambiar el mapa : haga clic en los botones verdes con una cruz de color negro para hacer un zoom, en el botón verde con un guión para alejar o en las flechas verdes para mapas adyacentes.


METAR-TAF: